Terminal Aerodrome Forecast
Issued by NWS

Home | Current Version | Previous Version | Text Only | Print | Product List | Glossary On
Versions: 1 2 3 4 5 6 7 8 9 10 11 12 13 14
000
FTUS42 KMLB 250533
TAFTIX
TAF
KTIX 250533Z 2506/2606 29003KT P6SM SKC
     FM251400 10006KT P6SM FEW030
     FM251700 11010KT P6SM VCTS SCT030CB BKN060
      TEMPO 2518/2521 3SM TSRA BKN020CB OVC040
     FM252200 14007KT P6SM FEW050 SCT100
      AMD NOT SKED TIL 251100=

USA.gov is the U.S. government's official web portal to all federal, state and local government web resources and services.